createdAt,value
2017-04-01T00:00:00.179Z,0
2017-04-01T00:01:01.628Z,0
2017-04-01T00:02:03.822Z,0
2017-04-01T00:03:05.988Z,0
2017-04-01T00:04:07.410Z,0
2017-04-01T00:05:09.450Z,0
2017-04-01T00:06:11.798Z,0
2017-04-01T00:07:12.294Z,0
2017-04-01T00:08:13.729Z,0
2017-04-01T00:09:15.790Z,0
2017-04-01T00:10:16.545Z,0
2017-04-01T00:11:18.985Z,0
2017-04-01T00:12:20.416Z,0
2017-04-01T00:13:21.856Z,0
2017-04-01T00:14:23.287Z,0
2017-04-01T00:15:24.721Z,0
2017-04-01T00:16:26.152Z,0
2017-04-01T00:17:28.405Z,0
2017-04-01T00:18:29.859Z,0
2017-04-01T00:19:32.528Z,0
2017-04-01T00:20:33.959Z,0
2017-04-01T00:21:36.023Z,0
2017-04-01T00:22:37.457Z,0
2017-04-01T00:23:38.887Z,0
2017-04-01T00:24:40.346Z,0
2017-04-01T00:25:42.506Z,0
2017-04-01T00:26:44.622Z,0
2017-04-01T00:27:46.053Z,0
2017-04-01T00:28:48.268Z,0
2017-04-01T00:29:52.098Z,0
2017-04-01T00:30:53.532Z,0
2017-04-01T00:31:54.969Z,0
2017-04-01T00:32:56.431Z,0
2017-04-01T00:33:58.402Z,0
2017-04-01T00:34:59.836Z,0
2017-04-01T00:36:01.274Z,0
2017-04-01T00:37:02.705Z,0
2017-04-01T00:38:05.121Z,0
2017-04-01T00:39:06.550Z,0
2017-04-01T00:40:08.554Z,0
2017-04-01T00:41:10.614Z,0
2017-04-01T00:42:12.047Z,0
2017-04-01T00:43:13.483Z,0
2017-04-01T00:44:14.922Z,0
2017-04-01T00:45:16.353Z,0
2017-04-01T00:46:18.372Z,0
2017-04-01T00:47:19.797Z,0
2017-04-01T00:48:21.232Z,0
2017-04-01T00:49:22.666Z,0
2017-04-01T00:50:24.957Z,0
2017-04-01T00:51:27.276Z,0
2017-04-01T00:52:28.711Z,0
2017-04-01T00:53:31.014Z,0
2017-04-01T00:54:32.452Z,0
2017-04-01T00:55:33.873Z,0
2017-04-01T00:56:35.307Z,0
2017-04-01T00:57:36.734Z,0
2017-04-01T00:58:38.179Z,0
2017-04-01T00:59:39.587Z,0
2017-04-01T01:00:41.017Z,0
2017-04-01T01:01:42.449Z,0
2017-04-01T01:02:43.879Z,0
2017-04-01T01:03:45.310Z,0
2017-04-01T01:04:46.737Z,0
2017-04-01T01:05:48.166Z,0
2017-04-01T01:06:49.595Z,0
2017-04-01T01:07:51.029Z,0
2017-04-01T01:08:52.458Z,0
2017-04-01T01:09:53.887Z,0
2017-04-01T01:10:55.320Z,0
2017-04-01T01:11:56.747Z,0
2017-04-01T01:12:58.169Z,0
2017-04-01T01:13:59.605Z,0
2017-04-01T01:15:01.042Z,0
2017-04-01T01:16:02.477Z,0
2017-04-01T01:17:03.922Z,0
2017-04-01T01:18:05.341Z,0
2017-04-01T01:19:06.769Z,0
2017-04-01T01:20:08.192Z,0
2017-04-01T01:21:09.620Z,0
2017-04-01T01:22:11.052Z,0
2017-04-01T01:23:12.487Z,0
2017-04-01T01:24:13.911Z,0
2017-04-01T01:25:15.337Z,0
2017-04-01T01:26:16.762Z,0
2017-04-01T01:27:18.193Z,0
2017-04-01T01:28:19.618Z,0
2017-04-01T01:29:21.048Z,0
2017-04-01T01:30:22.480Z,0
2017-04-01T01:31:23.904Z,0
2017-04-01T01:32:25.343Z,0
2017-04-01T01:33:26.773Z,0
2017-04-01T01:34:28.198Z,0
2017-04-01T01:35:29.628Z,0
2017-04-01T01:36:31.064Z,0
2017-04-01T01:37:32.501Z,0
2017-04-01T01:38:33.923Z,0
2017-04-01T01:39:35.354Z,0
2017-04-01T01:40:36.787Z,0
2017-04-01T01:41:38.217Z,0
2017-04-01T01:42:39.669Z,0
2017-04-01T01:43:41.099Z,0
2017-04-01T01:44:42.525Z,0
2017-04-01T01:45:43.951Z,0
2017-04-01T01:46:45.383Z,0
2017-04-01T01:47:46.815Z,0
2017-04-01T01:48:48.253Z,0
2017-04-01T01:49:49.761Z,0
2017-04-01T01:50:52.367Z,0
2017-04-01T01:51:53.806Z,0
2017-04-01T01:52:55.235Z,0
2017-04-01T01:53:56.668Z,0
2017-04-01T01:54:58.103Z,0
2017-04-01T01:55:59.524Z,0
2017-04-01T01:57:00.957Z,0
2017-04-01T01:58:02.392Z,0
2017-04-01T01:59:03.820Z,0
2017-04-01T02:00:05.247Z,0
2017-04-01T02:01:06.676Z,0
2017-04-01T02:02:08.102Z,0
2017-04-01T02:03:09.528Z,0
2017-04-01T02:04:10.958Z,0
2017-04-01T02:05:12.379Z,0
2017-04-01T02:06:13.809Z,0
2017-04-01T02:07:15.239Z,0
2017-04-01T02:08:16.674Z,0
2017-04-01T02:09:19.698Z,0
2017-04-01T02:10:21.124Z,0
2017-04-01T02:11:22.551Z,0
2017-04-01T02:12:23.986Z,0
2017-04-01T02:13:25.417Z,0
2017-04-01T02:14:26.846Z,0
2017-04-01T02:15:28.277Z,0
2017-04-01T02:16:29.705Z,0
2017-04-01T02:17:31.135Z,0
2017-04-01T02:18:32.568Z,0
2017-04-01T02:19:33.995Z,0
2017-04-01T02:20:35.416Z,0
2017-04-01T02:21:36.846Z,0
2017-04-01T02:22:38.282Z,0
2017-04-01T02:23:39.706Z,0
2017-04-01T02:24:41.867Z,0
2017-04-01T02:25:43.294Z,0
2017-04-01T02:26:44.724Z,0
2017-04-01T02:27:46.150Z,0
2017-04-01T02:28:47.610Z,0
2017-04-01T02:29:49.038Z,0
2017-04-01T02:30:50.466Z,0
2017-04-01T02:31:51.899Z,0
2017-04-01T02:32:53.370Z,0
2017-04-01T02:33:54.803Z,0
2017-04-01T02:34:56.231Z,0
2017-04-01T02:35:57.656Z,0
2017-04-01T02:36:59.089Z,0
2017-04-01T02:38:00.518Z,0
2017-04-01T02:39:01.945Z,0
2017-04-01T02:40:03.379Z,0
2017-04-01T02:41:04.797Z,0
2017-04-01T02:42:06.234Z,0
2017-04-01T02:43:07.656Z,0
2017-04-01T02:44:09.079Z,0
2017-04-01T02:45:10.507Z,0
2017-04-01T02:46:11.937Z,0
2017-04-01T02:47:13.363Z,0
2017-04-01T02:48:14.792Z,0
2017-04-01T02:49:16.224Z,0
2017-04-01T02:50:17.651Z,0
2017-04-01T02:51:19.079Z,0
2017-04-01T02:52:20.508Z,0
2017-04-01T02:53:21.941Z,0
2017-04-01T02:54:23.367Z,0
2017-04-01T02:55:24.887Z,0
2017-04-01T02:56:26.305Z,0
2017-04-01T02:57:27.814Z,0
2017-04-01T02:58:29.234Z,0
2017-04-01T02:59:30.667Z,0
2017-04-01T03:00:32.094Z,0
2017-04-01T03:01:33.518Z,0
2017-04-01T03:02:34.949Z,0
2017-04-01T03:03:36.382Z,0
2017-04-01T03:04:37.823Z,0
2017-04-01T03:05:39.248Z,0
2017-04-01T03:06:40.675Z,0
2017-04-01T03:07:42.124Z,0
2017-04-01T03:08:43.551Z,0
2017-04-01T03:09:44.981Z,0
2017-04-01T03:10:46.411Z,0
2017-04-01T03:11:47.841Z,0
2017-04-01T03:12:49.268Z,0
2017-04-01T03:13:50.694Z,0
2017-04-01T03:14:52.116Z,0
2017-04-01T03:15:53.543Z,0
2017-04-01T03:16:54.968Z,0
2017-04-01T03:17:56.395Z,0
2017-04-01T03:18:57.819Z,0
2017-04-01T03:19:59.252Z,0
2017-04-01T03:21:00.675Z,0
2017-04-01T03:22:02.099Z,0
2017-04-01T03:23:03.530Z,0
2017-04-01T03:24:04.963Z,0
2017-04-01T03:25:06.386Z,0
2017-04-01T03:26:07.811Z,0
2017-04-01T03:27:09.237Z,0
2017-04-01T03:28:10.664Z,0
2017-04-01T03:29:12.098Z,0
2017-04-01T03:30:13.528Z,0
2017-04-01T03:31:14.959Z,0
2017-04-01T03:32:16.390Z,0
2017-04-01T03:33:18.326Z,0
2017-04-01T03:34:20.701Z,0
2017-04-01T03:35:22.137Z,0
2017-04-01T03:36:24.134Z,0
2017-04-01T03:37:24.929Z,0
2017-04-01T03:38:26.358Z,0
2017-04-01T03:39:27.783Z,0
2017-04-01T03:40:29.211Z,0
2017-04-01T03:41:30.638Z,0
2017-04-01T03:42:32.067Z,0
2017-04-01T03:43:33.498Z,0
2017-04-01T03:44:34.927Z,0
2017-04-01T03:45:36.355Z,0
2017-04-01T03:46:37.782Z,0
2017-04-01T03:47:39.206Z,0
2017-04-01T03:48:40.637Z,0
2017-04-01T03:49:42.066Z,0
2017-04-01T03:50:43.498Z,0
2017-04-01T03:51:44.914Z,0
2017-04-01T03:52:46.347Z,0
2017-04-01T03:53:47.779Z,0
2017-04-01T03:54:49.205Z,0
2017-04-01T03:55:50.633Z,0
2017-04-01T03:56:52.062Z,0
2017-04-01T03:57:53.483Z,0
2017-04-01T03:58:54.915Z,0
2017-04-01T03:59:56.350Z,0
2017-04-01T04:00:57.779Z,0
2017-04-01T04:01:59.824Z,0
2017-04-01T04:03:01.247Z,0
2017-04-01T04:04:02.678Z,0
2017-04-01T04:05:04.103Z,0
2017-04-01T04:06:05.537Z,0
2017-04-01T04:07:06.967Z,0
2017-04-01T04:08:08.400Z,0
2017-04-01T04:09:09.827Z,0
2017-04-01T04:10:11.259Z,0
2017-04-01T04:11:12.678Z,0
2017-04-01T04:12:14.109Z,0
2017-04-01T04:13:15.539Z,0
2017-04-01T04:14:16.962Z,0
2017-04-01T04:15:18.390Z,0
2017-04-01T04:16:19.821Z,0
2017-04-01T04:17:21.256Z,0
2017-04-01T04:18:22.678Z,0
2017-04-01T04:19:24.108Z,0
2017-04-01T04:20:25.533Z,0
2017-04-01T04:21:26.963Z,0
2017-04-01T04:22:28.391Z,0
2017-04-01T04:23:29.817Z,0
2017-04-01T04:24:31.257Z,0
2017-04-01T04:25:32.681Z,0
2017-04-01T04:26:34.107Z,0
2017-04-01T04:27:35.542Z,0
2017-04-01T04:28:36.969Z,0
2017-04-01T04:29:38.391Z,0
2017-04-01T04:30:39.829Z,0
2017-04-01T04:31:41.252Z,0
2017-04-01T04:32:42.677Z,0
2017-04-01T04:33:44.103Z,0
2017-04-01T04:34:45.534Z,0
2017-04-01T04:35:46.960Z,0
2017-04-01T04:36:48.388Z,0
2017-04-01T04:37:49.817Z,0
2017-04-01T04:38:51.257Z,0
2017-04-01T04:39:52.684Z,0
2017-04-01T04:40:54.114Z,0
2017-04-01T04:41:55.545Z,0
2017-04-01T04:42:56.968Z,0
2017-04-01T04:43:58.399Z,0
2017-04-01T04:44:59.826Z,4
2017-04-01T04:46:01.257Z,0
2017-04-01T04:47:02.676Z,4
2017-04-01T04:48:04.100Z,4
2017-04-01T04:49:05.528Z,4
2017-04-01T04:50:06.953Z,4
2017-04-01T04:51:08.387Z,4
2017-04-01T04:52:09.809Z,8
2017-04-01T04:53:11.241Z,8
2017-04-01T04:54:12.672Z,12
2017-04-01T04:55:14.097Z,12
2017-04-01T04:56:15.533Z,16
2017-04-01T04:57:16.964Z,16
2017-04-01T04:58:19.075Z,16
2017-04-01T04:59:20.502Z,20
2017-04-01T05:00:21.926Z,24
2017-04-01T05:01:23.355Z,32
2017-04-01T05:02:24.787Z,32
2017-04-01T05:03:26.225Z,36
2017-04-01T05:04:27.652Z,40
2017-04-01T05:05:29.115Z,44
2017-04-01T05:06:30.569Z,48
2017-04-01T05:07:31.995Z,56
2017-04-01T05:08:33.423Z,60
2017-04-01T05:09:34.862Z,64
2017-04-01T05:10:36.287Z,72
2017-04-01T05:11:37.717Z,76
2017-04-01T05:12:39.146Z,84
2017-04-01T05:13:40.578Z,92
2017-04-01T05:14:42.002Z,96
2017-04-01T05:15:43.426Z,104
2017-04-01T05:16:44.856Z,108
2017-04-01T05:17:46.281Z,120
2017-04-01T05:18:48.309Z,132
2017-04-01T05:19:49.730Z,136
2017-04-01T05:20:51.168Z,148
2017-04-01T05:21:52.601Z,156
2017-04-01T05:22:54.035Z,172
2017-04-01T05:23:55.469Z,192
2017-04-01T05:24:56.898Z,204
2017-04-01T05:25:58.327Z,220
2017-04-01T05:26:59.767Z,232
2017-04-01T05:28:01.201Z,252
2017-04-01T05:29:02.635Z,268
2017-04-01T05:30:04.058Z,288
2017-04-01T05:31:05.631Z,308
2017-04-01T05:32:07.062Z,324
2017-04-01T05:33:08.493Z,340
2017-04-01T05:34:09.922Z,356
2017-04-01T05:35:11.378Z,376
2017-04-01T05:36:12.811Z,388
2017-04-01T05:37:14.236Z,400
2017-04-01T05:38:15.674Z,416
2017-04-01T05:39:17.103Z,432
2017-04-01T05:40:18.533Z,448
2017-04-01T05:41:19.966Z,468
2017-04-01T05:42:21.405Z,480
2017-04-01T05:43:22.843Z,488
2017-04-01T05:44:24.268Z,500
2017-04-01T05:45:25.715Z,524
2017-04-01T05:46:27.143Z,532
2017-04-01T05:47:28.570Z,528
2017-04-01T05:48:30.007Z,532
2017-04-01T05:49:31.436Z,528
2017-04-01T05:50:32.863Z,528
2017-04-01T05:51:34.302Z,524
2017-04-01T05:52:35.731Z,532
2017-04-01T05:53:37.163Z,544
2017-04-01T05:54:38.593Z,552
2017-04-01T05:55:40.022Z,564
2017-04-01T05:56:41.457Z,576
2017-04-01T05:57:42.879Z,576
2017-04-01T05:58:44.313Z,572
2017-04-01T05:59:45.753Z,580
2017-04-01T06:00:47.182Z,576
2017-04-01T06:01:48.622Z,588
2017-04-01T06:02:50.053Z,588
2017-04-01T06:03:51.484Z,584
2017-04-01T06:04:52.912Z,588
2017-04-01T06:05:54.345Z,592
2017-04-01T06:06:55.786Z,608
2017-04-01T06:07:57.214Z,616
2017-04-01T06:08:58.646Z,628
2017-04-01T06:10:00.069Z,640
2017-04-01T06:11:01.502Z,656
2017-04-01T06:12:02.937Z,660
2017-04-01T06:13:04.365Z,668
2017-04-01T06:14:05.796Z,688
2017-04-01T06:15:07.227Z,708
2017-04-01T06:16:08.662Z,708
2017-04-01T06:17:10.092Z,700
2017-04-01T06:18:11.525Z,696
2017-04-01T06:19:12.959Z,688
2017-04-01T06:20:14.390Z,696
2017-04-01T06:21:15.816Z,720
2017-04-01T06:22:17.247Z,744
2017-04-01T06:23:18.677Z,764
2017-04-01T06:24:20.118Z,784
2017-04-01T06:25:21.553Z,800
2017-04-01T06:26:22.984Z,812
2017-04-01T06:27:25.334Z,832
2017-04-01T06:28:26.764Z,848
2017-04-01T06:29:28.196Z,856
2017-04-01T06:30:29.628Z,864
2017-04-01T06:31:31.064Z,876
2017-04-01T06:32:32.494Z,884
2017-04-01T06:33:33.926Z,888
2017-04-01T06:34:35.356Z,900
2017-04-01T06:35:36.782Z,900
2017-04-01T06:36:38.212Z,904
2017-04-01T06:37:39.638Z,896
2017-04-01T06:38:41.071Z,892
2017-04-01T06:39:42.502Z,884
2017-04-01T06:40:43.935Z,884
2017-04-01T06:41:45.367Z,892
2017-04-01T06:42:46.791Z,896
2017-04-01T06:43:48.217Z,884
2017-04-01T06:44:49.652Z,864
2017-04-01T06:45:51.082Z,868
2017-04-01T06:46:52.514Z,876
2017-04-01T06:47:53.956Z,876
2017-04-01T06:48:55.385Z,864
2017-04-01T06:49:56.813Z,848
2017-04-01T06:50:58.247Z,836
2017-04-01T06:51:59.680Z,852
2017-04-01T06:53:01.111Z,856
2017-04-01T06:54:02.544Z,852
2017-04-01T06:55:03.976Z,788
2017-04-01T06:56:05.416Z,852
2017-04-01T06:57:06.836Z,876
2017-04-01T06:58:08.290Z,872
2017-04-01T06:59:09.722Z,864
2017-04-01T07:00:11.150Z,824
2017-04-01T07:01:12.582Z,816
2017-04-01T07:02:14.007Z,808
2017-04-01T07:03:15.438Z,804
2017-04-01T07:04:16.864Z,812
2017-04-01T07:05:18.294Z,836
2017-04-01T07:06:19.732Z,864
2017-04-01T07:07:21.165Z,888
2017-04-01T07:08:22.593Z,920
2017-04-01T07:09:24.022Z,952
2017-04-01T07:10:25.454Z,596
2017-04-01T07:11:26.906Z,980
2017-04-01T07:12:28.333Z,996
2017-04-01T07:13:29.769Z,972
2017-04-01T07:14:31.203Z,984
2017-04-01T07:15:32.583Z,980
2017-04-01T07:16:34.018Z,996
2017-04-01T07:17:35.453Z,812
2017-04-01T07:18:36.883Z,1128
2017-04-01T07:19:38.311Z,1140
2017-04-01T07:20:39.745Z,1148
2017-04-01T07:21:41.185Z,1152
2017-04-01T07:22:42.616Z,1144
2017-04-01T07:23:44.047Z,1144
2017-04-01T07:24:45.482Z,1152
2017-04-01T07:25:46.914Z,1148
2017-04-01T07:26:48.346Z,1152
2017-04-01T07:27:49.784Z,1124
2017-04-01T07:28:51.220Z,1116
2017-04-01T07:29:52.657Z,1120
2017-04-01T07:30:54.090Z,1140
2017-04-01T07:31:55.527Z,1156
2017-04-01T07:32:56.964Z,1176
2017-04-01T07:33:58.395Z,1196
2017-04-01T07:34:59.819Z,1220
2017-04-01T07:36:01.260Z,1272
2017-04-01T07:37:02.696Z,1332
2017-04-01T07:38:04.140Z,1408
2017-04-01T07:39:05.578Z,1448
2017-04-01T07:40:07.009Z,1492
2017-04-01T07:41:08.441Z,1504
2017-04-01T07:42:09.873Z,1524
2017-04-01T07:43:11.305Z,1592
2017-04-01T07:44:12.748Z,1628
2017-04-01T07:45:14.177Z,1736
2017-04-01T07:46:15.614Z,1896
2017-04-01T07:47:17.046Z,1992
2017-04-01T07:48:18.474Z,1976
2017-04-01T07:49:19.917Z,1980
2017-04-01T07:50:21.349Z,2044
2017-04-01T07:51:22.787Z,2120
2017-04-01T07:52:24.212Z,2140
2017-04-01T07:53:25.646Z,2236
2017-04-01T07:54:27.080Z,2196
2017-04-01T07:55:28.510Z,2248
2017-04-01T07:56:29.948Z,2292
2017-04-01T07:57:31.383Z,2304
2017-04-01T07:58:32.814Z,2300
2017-04-01T07:59:34.266Z,2320
2017-04-01T08:00:35.703Z,2208
2017-04-01T08:01:37.134Z,2300
2017-04-01T08:02:38.574Z,2304
2017-04-01T08:03:40.008Z,2300
2017-04-01T08:04:41.455Z,2268
2017-04-01T08:05:42.890Z,2320
2017-04-01T08:06:44.329Z,2272
2017-04-01T08:07:45.771Z,2244
2017-04-01T08:08:47.212Z,2296
2017-04-01T08:09:48.653Z,2208
2017-04-01T08:10:50.103Z,2332
2017-04-01T08:11:51.548Z,2380
2017-04-01T08:12:52.982Z,2348
2017-04-01T08:13:54.423Z,2308
2017-04-01T08:14:55.864Z,2208
2017-04-01T08:15:57.301Z,2100
2017-04-01T08:16:58.783Z,2108
2017-04-01T08:18:00.229Z,2244
2017-04-01T08:19:01.670Z,2372
2017-04-01T08:20:03.913Z,2584
2017-04-01T08:21:05.184Z,2696
2017-04-01T08:22:06.630Z,2828
2017-04-01T08:23:08.061Z,2896
2017-04-01T08:24:09.504Z,2920
2017-04-01T08:25:10.929Z,3060
2017-04-01T08:26:12.373Z,3048
2017-04-01T08:27:13.809Z,3060
2017-04-01T08:28:15.247Z,3116
2017-04-01T08:29:16.679Z,3004
2017-04-01T08:30:18.120Z,3076
2017-04-01T08:31:19.565Z,3092
2017-04-01T08:32:21.000Z,3012
2017-04-01T08:33:22.435Z,2964
2017-04-01T08:34:23.872Z,3056
2017-04-01T08:35:25.302Z,2920
2017-04-01T08:36:26.758Z,2756
2017-04-01T08:37:28.200Z,2656
2017-04-01T08:38:29.640Z,2468
2017-04-01T08:39:31.075Z,2432
2017-04-01T08:40:32.520Z,2472
2017-04-01T08:41:33.955Z,2300
2017-04-01T08:42:35.395Z,2252
2017-04-01T08:43:36.841Z,2284
2017-04-01T08:44:38.267Z,2392
2017-04-01T08:45:39.708Z,2588
2017-04-01T08:46:41.142Z,2792
2017-04-01T08:47:42.585Z,2872
2017-04-01T08:48:44.012Z,2956
2017-04-01T08:49:45.446Z,2876
2017-04-01T08:50:46.880Z,3000
2017-04-01T08:51:48.313Z,3212
2017-04-01T08:52:49.745Z,3460
2017-04-01T08:53:51.188Z,3448
2017-04-01T08:54:52.631Z,3532
2017-04-01T08:55:54.070Z,3508
2017-04-01T08:56:55.499Z,3548
2017-04-01T08:57:56.936Z,3488
2017-04-01T08:58:58.374Z,3556
2017-04-01T08:59:59.803Z,3476
2017-04-01T09:01:01.250Z,3296
2017-04-01T09:02:02.687Z,3336
2017-04-01T09:03:04.128Z,3424
2017-04-01T09:04:05.558Z,3004
2017-04-01T09:05:06.995Z,2804
2017-04-01T09:06:08.438Z,2564
2017-04-01T09:07:09.881Z,2608
2017-04-01T09:08:11.322Z,2628
2017-04-01T09:09:12.756Z,2740
2017-04-01T09:10:14.195Z,2884
2017-04-01T09:11:15.623Z,2844
2017-04-01T09:12:17.061Z,2820
2017-04-01T09:13:18.509Z,2840
2017-04-01T09:14:19.941Z,2820
2017-04-01T09:15:21.391Z,2724
2017-04-01T09:16:22.824Z,2540
2017-04-01T09:17:24.267Z,2424
2017-04-01T09:18:25.705Z,2308
2017-04-01T09:19:27.148Z,2316
2017-04-01T09:20:28.588Z,2556
2017-04-01T09:21:30.033Z,2660
2017-04-01T09:22:31.467Z,2776
2017-04-01T09:23:32.908Z,2868
2017-04-01T09:24:34.340Z,2908
2017-04-01T09:25:35.776Z,3100
2017-04-01T09:26:37.214Z,3088
2017-04-01T09:27:38.661Z,3080
2017-04-01T09:28:40.096Z,3260
2017-04-01T09:29:41.535Z,3436
2017-04-01T09:30:42.970Z,3468
2017-04-01T09:31:44.409Z,3496
2017-04-01T09:32:45.849Z,3548
2017-04-01T09:33:47.284Z,3556
2017-04-01T09:34:48.719Z,3576
2017-04-01T09:35:50.156Z,3752
2017-04-01T09:36:51.596Z,3704
2017-04-01T09:37:53.033Z,3632
2017-04-01T09:38:54.464Z,3612
2017-04-01T09:39:55.904Z,3632
2017-04-01T09:40:57.417Z,3628
2017-04-01T09:41:58.855Z,3656
2017-04-01T09:43:00.300Z,3536
2017-04-01T09:44:01.731Z,3408
2017-04-01T09:45:03.169Z,3504
2017-04-01T09:46:04.601Z,3612
2017-04-01T09:47:06.829Z,3944
2017-04-01T09:48:08.264Z,3800
2017-04-01T09:49:09.711Z,3608
2017-04-01T09:50:11.145Z,3532
2017-04-01T09:51:12.575Z,3564
2017-04-01T09:52:14.015Z,3564
2017-04-01T09:53:15.449Z,3676
2017-04-01T09:54:16.883Z,3640
2017-04-01T09:55:18.321Z,3600
2017-04-01T09:56:19.762Z,3516
2017-04-01T09:57:21.210Z,3432
2017-04-01T09:58:22.642Z,3396
2017-04-01T09:59:24.077Z,3460
2017-04-01T10:00:26.157Z,3432
2017-04-01T10:01:27.597Z,3456
2017-04-01T10:02:29.037Z,3460
2017-04-01T10:03:30.475Z,3588
2017-04-01T10:04:31.913Z,3600
2017-04-01T10:05:33.353Z,3576
2017-04-01T10:06:34.795Z,3676
2017-04-01T10:07:36.229Z,3548
2017-04-01T10:08:37.679Z,3568
2017-04-01T10:09:39.109Z,3596
2017-04-01T10:10:40.546Z,3564
2017-04-01T10:11:41.986Z,3536
2017-04-01T10:12:43.426Z,3600
2017-04-01T10:13:44.862Z,3556
2017-04-01T10:14:46.304Z,3516
2017-04-01T10:15:47.731Z,3496
2017-04-01T10:16:49.175Z,3540
2017-04-01T10:17:50.622Z,3644
2017-04-01T10:18:52.075Z,3780
2017-04-01T10:19:53.518Z,3856
2017-04-01T10:20:54.949Z,3840
2017-04-01T10:21:56.384Z,3932
2017-04-01T10:22:57.827Z,3860
2017-04-01T10:23:59.278Z,3792
2017-04-01T10:25:00.754Z,3820
2017-04-01T10:26:02.199Z,3900
2017-04-01T10:27:03.639Z,3948
2017-04-01T10:28:05.068Z,3972
2017-04-01T10:29:06.509Z,4056
2017-04-01T10:30:07.958Z,4116
2017-04-01T10:31:09.387Z,4192
2017-04-01T10:32:10.835Z,4312
2017-04-01T10:33:12.281Z,4392
2017-04-01T10:34:13.714Z,4376
2017-04-01T10:35:15.159Z,4320
2017-04-01T10:36:16.598Z,4420
2017-04-01T10:37:18.032Z,4532
2017-04-01T10:38:19.481Z,4504
2017-04-01T10:39:20.916Z,4500
2017-04-01T10:40:22.358Z,4640
2017-04-01T10:41:23.799Z,4824
2017-04-01T10:42:25.237Z,5044
2017-04-01T10:43:26.681Z,5160
2017-04-01T10:44:28.120Z,5320
2017-04-01T10:45:30.180Z,5644
2017-04-01T10:46:31.623Z,5948
2017-04-01T10:47:33.059Z,5928
2017-04-01T10:48:34.495Z,5852
2017-04-01T10:49:35.937Z,5692
2017-04-01T10:50:37.387Z,5436
2017-04-01T10:51:38.825Z,5712
2017-04-01T10:52:40.258Z,5488
2017-04-01T10:53:41.698Z,5476
2017-04-01T10:54:43.147Z,5688
2017-04-01T10:55:44.579Z,5708
2017-04-01T10:56:46.020Z,5516
2017-04-01T10:57:47.461Z,5296
2017-04-01T10:58:48.894Z,5116
2017-04-01T10:59:50.342Z,5156
2017-04-01T11:00:51.790Z,5280
2017-04-01T11:01:53.263Z,5296
2017-04-01T11:02:54.694Z,5308
2017-04-01T11:03:56.135Z,5428
2017-04-01T11:04:57.587Z,5124
2017-04-01T11:05:59.028Z,5356
2017-04-01T11:07:00.463Z,5288
2017-04-01T11:08:01.899Z,5244
2017-04-01T11:09:03.346Z,4776
2017-04-01T11:10:04.782Z,4568
2017-04-01T11:11:06.221Z,4648
2017-04-01T11:12:07.665Z,4532
2017-04-01T11:13:09.103Z,4152
2017-04-01T11:14:10.541Z,4260
2017-04-01T11:15:11.988Z,4160
2017-04-01T11:16:13.426Z,4044
2017-04-01T11:17:14.871Z,3712
2017-04-01T11:18:16.320Z,3700
2017-04-01T11:19:17.762Z,3816
2017-04-01T11:20:19.207Z,4004
2017-04-01T11:21:20.647Z,4320
2017-04-01T11:22:22.088Z,4848
2017-04-01T11:23:23.535Z,4844
2017-04-01T11:24:24.976Z,5364
2017-04-01T11:25:26.408Z,5616
2017-04-01T11:26:27.853Z,5556
2017-04-01T11:27:29.293Z,5336
2017-04-01T11:28:30.733Z,5516
2017-04-01T11:29:32.173Z,5744
2017-04-01T11:30:33.621Z,5192
2017-04-01T11:31:35.189Z,4932
2017-04-01T11:32:36.628Z,4820
2017-04-01T11:33:38.067Z,4856
2017-04-01T11:34:39.502Z,4836
2017-04-01T11:35:40.948Z,4820
2017-04-01T11:36:42.382Z,4696
2017-04-01T11:37:43.827Z,4668
2017-04-01T11:38:45.267Z,4576
2017-04-01T11:39:46.705Z,4520
2017-04-01T11:40:48.136Z,4960
2017-04-01T11:41:49.575Z,4620
2017-04-01T11:42:51.012Z,4716
2017-04-01T11:43:52.444Z,4920
2017-04-01T11:44:53.898Z,5124
2017-04-01T11:45:55.344Z,5264
2017-04-01T11:46:56.789Z,5276
2017-04-01T11:47:58.220Z,5304
2017-04-01T11:48:59.663Z,5536
2017-04-01T11:50:01.107Z,5860
2017-04-01T11:51:02.543Z,6112
2017-04-01T11:52:03.978Z,6380
2017-04-01T11:53:05.421Z,6100
2017-04-01T11:54:06.856Z,6008
2017-04-01T11:55:08.297Z,6044
2017-04-01T11:56:09.728Z,6456
2017-04-01T11:57:11.169Z,6404
2017-04-01T11:58:12.603Z,6328
2017-04-01T11:59:14.049Z,5976
2017-04-01T12:00:15.484Z,6128
2017-04-01T12:01:16.927Z,6260
2017-04-01T12:02:18.365Z,6112
2017-04-01T12:03:19.802Z,5880
2017-04-01T12:04:21.239Z,6068
2017-04-01T12:05:22.684Z,5512
2017-04-01T12:06:24.119Z,5464
2017-04-01T12:07:25.563Z,5816
2017-04-01T12:08:27.000Z,5920
2017-04-01T12:09:28.435Z,5968
2017-04-01T12:10:29.865Z,6508
2017-04-01T12:11:31.312Z,6140
2017-04-01T12:12:32.756Z,6288
2017-04-01T12:13:34.193Z,6668
2017-04-01T12:14:35.636Z,7020
2017-04-01T12:15:37.077Z,7088
2017-04-01T12:16:38.512Z,7280
2017-04-01T12:17:39.957Z,6720
2017-04-01T12:18:41.394Z,6556
2017-04-01T12:19:42.837Z,5968
2017-04-01T12:20:44.272Z,6448
2017-04-01T12:21:45.716Z,6664
2017-04-01T12:22:47.161Z,6524
2017-04-01T12:23:48.594Z,6548
2017-04-01T12:24:50.032Z,6484
2017-04-01T12:25:51.477Z,6324
2017-04-01T12:26:52.919Z,5612
2017-04-01T12:27:54.358Z,5256
2017-04-01T12:28:55.801Z,5116
2017-04-01T12:29:57.251Z,5096
2017-04-01T12:30:58.703Z,4772
2017-04-01T12:32:00.145Z,4408
2017-04-01T12:33:01.581Z,4088
2017-04-01T12:34:03.172Z,2984
2017-04-01T12:35:04.610Z,4136
2017-04-01T12:36:06.058Z,4392
2017-04-01T12:37:07.495Z,4704
2017-04-01T12:38:08.943Z,5008
2017-04-01T12:39:10.391Z,5240
2017-04-01T12:40:11.833Z,5452
2017-04-01T12:41:13.276Z,5760
2017-04-01T12:42:14.712Z,6124
2017-04-01T12:43:16.162Z,6436
2017-04-01T12:44:17.597Z,6712
2017-04-01T12:45:19.041Z,6984
2017-04-01T12:46:20.480Z,7172
2017-04-01T12:47:21.922Z,7256
2017-04-01T12:48:23.359Z,7224
2017-04-01T12:49:24.797Z,7024
2017-04-01T12:50:26.240Z,7060
2017-04-01T12:51:27.675Z,7112
2017-04-01T12:52:29.112Z,7080
2017-04-01T12:53:30.549Z,7028
2017-04-01T12:54:31.987Z,6764
2017-04-01T12:55:33.433Z,6708
2017-04-01T12:56:34.873Z,6564
2017-04-01T12:57:36.314Z,6456
2017-04-01T12:58:37.758Z,6312
2017-04-01T12:59:39.197Z,6212
2017-04-01T13:00:40.655Z,6148
2017-04-01T13:01:42.084Z,6056
2017-04-01T13:02:43.527Z,6080
2017-04-01T13:03:44.970Z,6164
2017-04-01T13:04:46.404Z,5984
2017-04-01T13:05:47.848Z,5844
2017-04-01T13:06:49.292Z,6636
2017-04-01T13:07:50.731Z,7488
2017-04-01T13:08:52.177Z,7824
2017-04-01T13:09:53.619Z,8012
2017-04-01T13:10:55.062Z,8152
2017-04-01T13:11:56.496Z,8276
2017-04-01T13:12:57.938Z,8556
2017-04-01T13:13:59.389Z,9000
2017-04-01T13:15:00.826Z,9332
2017-04-01T13:16:02.269Z,9824
2017-04-01T13:17:03.711Z,10360
2017-04-01T13:18:05.150Z,10588
2017-04-01T13:19:06.586Z,10784
2017-04-01T13:20:08.026Z,10676
2017-04-01T13:21:09.470Z,10772
2017-04-01T13:22:10.916Z,11540
2017-04-01T13:23:12.365Z,18528
2017-04-01T13:24:13.798Z,40512
2017-04-01T13:25:15.245Z,28736
2017-04-01T13:26:16.684Z,42400
2017-04-01T13:27:18.132Z,25824
2017-04-01T13:28:19.582Z,34400
2017-04-01T13:29:21.021Z,44288
2017-04-01T13:30:22.458Z,49696
2017-04-01T13:31:23.895Z,33536
2017-04-01T13:32:25.344Z,3448
2017-04-01T13:33:26.790Z,19264
2017-04-01T13:34:28.226Z,21856
2017-04-01T13:35:29.669Z,15748
2017-04-01T13:36:31.105Z,8560
2017-04-01T13:37:32.540Z,10984
2017-04-01T13:38:33.978Z,12648
2017-04-01T13:39:35.425Z,14516
2017-04-01T13:40:37.420Z,12424
2017-04-01T13:41:38.869Z,13844
2017-04-01T13:42:40.314Z,22240
2017-04-01T13:43:41.754Z,20704
2017-04-01T13:44:43.202Z,17984
2017-04-01T13:45:44.644Z,33216
2017-04-01T13:46:46.088Z,21728
2017-04-01T13:47:47.529Z,19424
2017-04-01T13:48:48.976Z,23904
2017-04-01T13:49:50.409Z,25088
2017-04-01T13:50:51.852Z,18688
2017-04-01T13:51:53.289Z,12188
2017-04-01T13:52:54.732Z,7280
2017-04-01T13:53:56.179Z,6732
2017-04-01T13:54:57.619Z,6892
2017-04-01T13:55:59.058Z,5080
2017-04-01T13:57:00.494Z,4956
2017-04-01T13:58:01.941Z,4796
2017-04-01T13:59:03.373Z,4628
2017-04-01T14:00:04.831Z,4380
2017-04-01T14:01:06.284Z,4392
2017-04-01T14:02:07.720Z,4888
2017-04-01T14:03:09.156Z,5564
2017-04-01T14:04:10.602Z,5844
2017-04-01T14:05:12.042Z,6124
2017-04-01T14:06:13.484Z,6356
2017-04-01T14:07:14.935Z,6084
2017-04-01T14:08:16.384Z,6116
2017-04-01T14:09:17.849Z,6144
2017-04-01T14:10:19.282Z,6196
2017-04-01T14:11:20.733Z,6252